createdAt,value
2018-02-03T00:00:19.688Z,2.10
2018-02-03T00:02:48.174Z,1.80
2018-02-03T00:05:16.288Z,2.20
2018-02-03T00:07:44.419Z,2.13
2018-02-03T00:10:13.296Z,2.20
2018-02-03T00:12:42.176Z,2.07
2018-02-03T00:15:10.469Z,1.67
2018-02-03T00:17:39.368Z,2.10
2018-02-03T00:20:07.486Z,2.17
2018-02-03T00:22:36.448Z,2.70
2018-02-03T00:25:04.557Z,1.90
2018-02-03T00:27:32.668Z,1.80
2018-02-03T00:30:00.761Z,1.87
2018-02-03T00:32:28.871Z,2.30
2018-02-03T00:34:56.984Z,2.03
2018-02-03T00:37:27.864Z,1.97
2018-02-03T00:39:56.732Z,1.67
2018-02-03T00:42:24.823Z,1.73
2018-02-03T00:44:52.936Z,1.50
2018-02-03T00:47:21.053Z,2.63
2018-02-03T00:49:49.168Z,2.53
2018-02-03T00:52:18.059Z,2.53
2018-02-03T00:54:46.159Z,1.93
2018-02-03T00:57:14.252Z,1.70
2018-02-03T00:59:42.352Z,1.70
2018-02-03T01:02:11.224Z,1.77
2018-02-03T01:04:39.327Z,1.53
2018-02-03T01:07:07.443Z,1.63
2018-02-03T01:09:36.337Z,2.37
2018-02-03T01:12:04.449Z,1.50
2018-02-03T01:14:32.561Z,1.60
2018-02-03T01:17:01.469Z,1.60
2018-02-03T01:19:29.616Z,1.90
2018-02-03T01:21:58.487Z,1.60
2018-02-03T01:24:26.584Z,1.70
2018-02-03T01:26:54.696Z,1.40
2018-02-03T01:29:23.565Z,1.50
2018-02-03T01:31:51.668Z,1.53
2018-02-03T01:34:20.548Z,1.77
2018-02-03T01:36:48.695Z,2.00
2018-02-03T01:39:16.823Z,1.10
2018-02-03T01:41:44.940Z,1.67
2018-02-03T01:44:13.068Z,1.47
2018-02-03T01:46:41.168Z,1.67
2018-02-03T01:49:09.321Z,2.03
2018-02-03T01:51:37.448Z,1.50
2018-02-03T01:54:05.580Z,2.03
2018-02-03T01:56:33.687Z,1.47
2018-02-03T01:59:02.580Z,1.50
2018-02-03T02:01:30.688Z,2.33
2018-02-03T02:03:58.837Z,1.37
2018-02-03T02:06:26.944Z,1.60
2018-02-03T02:08:55.049Z,1.27
2018-02-03T02:11:23.176Z,1.33
2018-02-03T02:13:51.280Z,1.70
2018-02-03T02:16:19.395Z,1.27
2018-02-03T02:18:47.543Z,1.80
2018-02-03T02:21:15.656Z,1.60
2018-02-03T02:23:43.944Z,1.40
2018-02-03T02:26:12.052Z,1.10
2018-02-03T02:28:40.150Z,1.73
2018-02-03T02:31:08.260Z,1.50
2018-02-03T02:33:36.320Z,1.20
2018-02-03T02:36:04.375Z,1.63
2018-02-03T02:38:32.440Z,1.40
2018-02-03T02:41:01.264Z,1.50
2018-02-03T02:43:29.313Z,1.50
2018-02-03T02:45:57.368Z,1.37
2018-02-03T02:48:25.424Z,1.00
2018-02-03T02:50:53.476Z,1.40
2018-02-03T02:53:21.528Z,1.50
2018-02-03T02:55:49.580Z,2.17
2018-02-03T02:58:17.690Z,1.47
2018-02-03T03:00:45.803Z,1.30
2018-02-03T03:03:13.908Z,1.40
2018-02-03T03:05:42.073Z,1.53
2018-02-03T03:08:10.350Z,1.37
2018-02-03T03:10:38.436Z,1.10
2018-02-03T03:13:07.289Z,1.67
2018-02-03T03:15:35.392Z,1.50
2018-02-03T03:18:03.498Z,1.63
2018-02-03T03:20:31.585Z,1.63
2018-02-03T03:22:59.673Z,1.63
2018-02-03T03:25:27.757Z,1.40
2018-02-03T03:27:55.849Z,1.30
2018-02-03T03:30:23.958Z,1.43
2018-02-03T03:32:52.072Z,1.50
2018-02-03T03:35:20.165Z,1.13
2018-02-03T03:37:48.246Z,1.40
2018-02-03T03:40:16.341Z,1.30
2018-02-03T03:42:44.435Z,1.20
2018-02-03T03:45:13.010Z,1.37
2018-02-03T03:47:41.889Z,1.30
2018-02-03T03:50:09.984Z,1.20
2018-02-03T03:52:38.069Z,1.20
2018-02-03T03:55:06.181Z,2.00
2018-02-03T03:57:34.289Z,2.20
2018-02-03T04:00:02.416Z,1.40
2018-02-03T04:02:31.268Z,1.60
2018-02-03T04:04:59.346Z,1.50
2018-02-03T04:07:27.421Z,0.90
2018-02-03T04:09:56.281Z,2.10
2018-02-03T04:12:24.365Z,1.07
2018-02-03T04:14:52.509Z,0.90
2018-02-03T04:17:20.650Z,1.27
2018-02-03T04:19:48.753Z,1.00
2018-02-03T04:22:16.835Z,1.00
2018-02-03T04:24:45.694Z,1.00
2018-02-03T04:27:13.794Z,1.20
2018-02-03T04:29:41.885Z,1.17
2018-02-03T04:32:09.969Z,0.80
2018-02-03T04:34:38.060Z,1.03
2018-02-03T04:37:06.126Z,1.10
2018-02-03T04:39:34.985Z,1.07
2018-02-03T04:42:03.078Z,1.10
2018-02-03T04:44:31.180Z,1.00
2018-02-03T04:46:59.290Z,1.20
2018-02-03T04:49:27.392Z,1.30
2018-02-03T04:51:55.509Z,1.00
2018-02-03T04:54:23.614Z,1.60
2018-02-03T04:56:51.689Z,0.90
2018-02-03T04:59:20.547Z,2.50
2018-02-03T05:01:49.416Z,1.33
2018-02-03T05:04:17.517Z,1.03
2018-02-03T05:06:45.602Z,0.83
2018-02-03T05:09:13.744Z,0.90
2018-02-03T05:11:42.598Z,0.93
2018-02-03T05:14:10.677Z,0.90
2018-02-03T05:16:38.786Z,0.83
2018-02-03T05:19:06.900Z,0.93
2018-02-03T05:21:34.992Z,0.80
2018-02-03T05:24:03.094Z,0.80
2018-02-03T05:26:31.173Z,1.00
2018-02-03T05:28:59.265Z,0.80
2018-02-03T05:31:27.384Z,0.87
2018-02-03T05:33:55.501Z,0.87
2018-02-03T05:36:23.614Z,0.83
2018-02-03T05:38:51.698Z,0.83
2018-02-03T05:41:19.850Z,0.90
2018-02-03T05:43:47.893Z,0.90
2018-02-03T05:46:16.013Z,0.83
2018-02-03T05:48:44.874Z,1.00
2018-02-03T05:51:12.958Z,0.90
2018-02-03T05:53:41.306Z,0.93
2018-02-03T05:56:09.405Z,0.60
2018-02-03T05:58:37.486Z,0.83
2018-02-03T06:01:05.590Z,0.70
2018-02-03T06:03:33.680Z,0.60
2018-02-03T06:06:01.771Z,0.90
2018-02-03T06:08:29.857Z,0.87
2018-02-03T06:10:58.045Z,0.70
2018-02-03T06:13:26.153Z,1.13
2018-02-03T06:15:54.266Z,0.60
2018-02-03T06:18:22.353Z,1.10
2018-02-03T06:20:51.229Z,0.80
2018-02-03T06:23:20.094Z,0.80
2018-02-03T06:25:48.186Z,0.90
2018-02-03T06:28:16.273Z,1.13
2018-02-03T06:30:44.366Z,0.70
2018-02-03T06:33:12.487Z,0.80
2018-02-03T06:35:41.343Z,0.60
2018-02-03T06:38:10.262Z,0.70
2018-02-03T06:40:39.110Z,0.80
2018-02-03T06:43:07.225Z,0.87
2018-02-03T06:45:36.333Z,1.00
2018-02-03T06:48:04.410Z,1.80
2018-02-03T06:50:32.553Z,0.83
2018-02-03T06:53:00.632Z,1.10
2018-02-03T06:55:28.734Z,0.80
2018-02-03T06:57:56.825Z,0.63
2018-02-03T07:00:24.941Z,0.80
2018-02-03T07:02:53.070Z,0.60
2018-02-03T07:05:21.918Z,0.83
2018-02-03T07:07:50.005Z,0.87
2018-02-03T07:10:18.090Z,0.80
2018-02-03T07:12:46.970Z,0.90
2018-02-03T07:15:15.049Z,0.80
2018-02-03T07:17:43.164Z,1.10
2018-02-03T07:20:11.293Z,0.90
2018-02-03T07:22:40.213Z,0.70
2018-02-03T07:25:08.302Z,0.80
2018-02-03T07:27:37.210Z,0.80
2018-02-03T07:30:05.331Z,0.90
2018-02-03T07:32:33.426Z,3.93
2018-02-03T07:35:01.506Z,1.57
2018-02-03T07:37:30.366Z,0.90
2018-02-03T07:39:58.458Z,0.70
2018-02-03T07:42:26.559Z,1.53
2018-02-03T07:44:54.642Z,1.43
2018-02-03T07:47:23.858Z,2.33
2018-02-03T07:49:52.046Z,0.80
2018-02-03T07:52:20.882Z,0.90
2018-02-03T07:54:48.965Z,1.17
2018-02-03T07:57:17.853Z,2.57
2018-02-03T07:59:46.130Z,1.00
2018-02-03T08:02:22.376Z,1.13
2018-02-03T08:04:50.509Z,1.20
2018-02-03T08:07:18.794Z,1.50
2018-02-03T08:09:47.669Z,2.63
2018-02-03T08:12:15.765Z,1.00
2018-02-03T08:14:44.781Z,1.47
2018-02-03T08:17:13.661Z,2.10
2018-02-03T08:19:47.554Z,2.03
2018-02-03T08:22:16.425Z,1.67
2018-02-03T08:24:44.551Z,4.83
2018-02-03T08:27:26.701Z,2.20
2018-02-03T08:29:54.825Z,3.67
2018-02-03T08:32:35.485Z,4.47
2018-02-03T08:35:24.718Z,4.27
2018-02-03T08:38:06.392Z,3.60
2018-02-03T08:40:41.413Z,1.53
2018-02-03T08:43:09.610Z,2.37
2018-02-03T08:45:38.832Z,19.07
2018-02-03T08:48:07.128Z,5.67
2018-02-03T08:50:35.329Z,2.33
2018-02-03T08:53:08.947Z,1.70
2018-02-03T08:55:39.849Z,2.40
2018-02-03T08:58:08.729Z,1.47
2018-02-03T09:00:36.914Z,1.53
2018-02-03T09:03:11.141Z,2.37
2018-02-03T09:05:46.898Z,1.63
2018-02-03T09:08:28.110Z,3.37
2018-02-03T09:10:57.110Z,2.70
2018-02-03T09:13:28.398Z,6.43
2018-02-03T09:16:08.020Z,3.60
2018-02-03T09:18:36.241Z,3.23
2018-02-03T09:21:05.413Z,2.13
2018-02-03T09:23:33.534Z,2.73
2018-02-03T09:26:08.543Z,2.00
2018-02-03T09:28:37.453Z,1.30
2018-02-03T09:31:06.385Z,1.53
2018-02-03T09:33:34.546Z,1.33
2018-02-03T09:36:08.834Z,2.10
2018-02-03T09:38:36.957Z,2.10
2018-02-03T09:41:05.046Z,2.07
2018-02-03T09:43:33.170Z,2.97
2018-02-03T09:46:01.278Z,1.70
2018-02-03T09:48:29.365Z,1.50
2018-02-03T09:50:57.516Z,3.83
2018-02-03T09:53:25.602Z,1.80
2018-02-03T09:55:54.637Z,1.30
2018-02-03T09:58:22.787Z,4.77
2018-02-03T10:00:50.912Z,2.20
2018-02-03T10:03:19.862Z,1.60
2018-02-03T10:25:54.450Z,1.27
2018-02-03T10:28:23.373Z,1.10
2018-02-03T10:30:52.823Z,1.30
2018-02-03T10:33:20.900Z,19.47
2018-02-03T10:35:49.017Z,39.67
2018-02-03T10:38:17.156Z,69.33
2018-02-03T10:40:45.319Z,71.60
2018-02-03T10:43:14.852Z,44.97
2018-02-03T10:45:42.924Z,34.97
2018-02-03T10:48:11.003Z,33.47
2018-02-03T10:50:39.100Z,44.20
2018-02-03T10:53:07.169Z,36.03
2018-02-03T10:55:36.010Z,37.43
2018-02-03T10:58:04.095Z,36.43
2018-02-03T11:00:37.754Z,22.70
2018-02-03T11:03:05.927Z,36.60
2018-02-03T11:05:34.009Z,41.50
2018-02-03T11:08:02.091Z,46.77
2018-02-03T11:10:30.179Z,46.27
2018-02-03T11:12:59.036Z,50.07
2018-02-03T11:15:27.916Z,31.37
2018-02-03T11:17:56.006Z,39.83
2018-02-03T11:20:24.121Z,35.37
2018-02-03T11:22:52.223Z,40.27
2018-02-03T11:25:20.313Z,31.03
2018-02-03T11:27:48.571Z,23.97
2018-02-03T11:30:17.452Z,35.63
2018-02-03T11:32:46.324Z,27.47
2018-02-03T11:35:19.008Z,32.57
2018-02-03T11:37:47.879Z,26.67
2018-02-03T11:40:20.373Z,23.27
2018-02-03T11:42:50.775Z,29.50
2018-02-03T11:45:23.231Z,22.97
2018-02-03T11:47:54.228Z,20.07
2018-02-03T11:50:22.716Z,17.27
2018-02-03T11:52:50.846Z,19.17
2018-02-03T11:55:18.956Z,16.57
2018-02-03T11:57:47.103Z,22.33
2018-02-03T12:00:15.601Z,19.00
2018-02-03T12:02:44.395Z,13.83
2018-02-03T12:05:13.601Z,16.03
2018-02-03T12:07:42.790Z,16.83
2018-02-03T12:10:11.096Z,23.17
2018-02-03T12:12:39.459Z,12.53
2018-02-03T12:15:09.650Z,15.33
2018-02-03T12:17:38.775Z,10.13
2018-02-03T12:20:06.943Z,13.27
2018-02-03T12:22:37.440Z,14.77
2018-02-03T12:25:07.560Z,13.87
2018-02-03T12:27:36.453Z,11.10
2018-02-03T12:30:04.565Z,10.37
2018-02-03T12:32:32.682Z,9.07
2018-02-03T12:35:00.861Z,11.83
2018-02-03T12:37:29.213Z,12.67
2018-02-03T12:39:58.138Z,9.87
2018-02-03T12:42:27.012Z,8.83
2018-02-03T12:44:56.907Z,9.20
2018-02-03T12:47:25.793Z,7.60
2018-02-03T12:49:53.979Z,8.50
2018-02-03T12:52:22.145Z,9.80
2018-02-03T12:54:54.885Z,8.23
2018-02-03T12:57:22.998Z,8.27
2018-02-03T12:59:51.100Z,10.67
2018-02-03T13:02:19.185Z,8.83
2018-02-03T13:04:48.053Z,12.40
2018-02-03T13:07:16.128Z,8.37
2018-02-03T13:09:46.196Z,9.70
2018-02-03T13:12:14.290Z,6.30
2018-02-03T13:14:42.371Z,9.80
2018-02-03T13:17:10.448Z,9.13
2018-02-03T13:19:39.490Z,7.90
2018-02-03T13:22:07.630Z,7.27
2018-02-03T13:24:35.754Z,7.27
2018-02-03T13:27:04.612Z,4.80
2018-02-03T13:29:32.698Z,4.17
2018-02-03T13:32:00.791Z,5.30
2018-02-03T13:34:28.882Z,6.77
2018-02-03T13:36:57.093Z,5.87
2018-02-03T13:39:26.134Z,6.37
2018-02-03T13:41:54.217Z,4.33
2018-02-03T13:44:22.299Z,5.17
2018-02-03T13:46:50.733Z,4.13
2018-02-03T13:49:19.718Z,7.13
2018-02-03T13:51:48.559Z,6.43
2018-02-03T13:54:16.673Z,6.57
2018-02-03T13:56:44.788Z,5.43
2018-02-03T13:59:12.897Z,6.93
2018-02-03T14:01:40.981Z,5.60
2018-02-03T14:04:09.065Z,6.37
2018-02-03T14:06:37.137Z,5.27
2018-02-03T14:09:05.219Z,7.37
2018-02-03T14:11:33.301Z,4.67
2018-02-03T14:14:01.380Z,4.80
2018-02-03T14:16:29.473Z,4.90
2018-02-03T14:18:59.492Z,4.00
2018-02-03T14:21:27.571Z,4.93
2018-02-03T14:24:01.996Z,4.40
2018-02-03T14:26:30.092Z,5.13
2018-02-03T14:28:58.209Z,4.93
2018-02-03T14:31:26.329Z,4.27
2018-02-03T14:33:54.450Z,4.80
2018-02-03T14:36:22.586Z,4.53
2018-02-03T14:38:50.695Z,3.00
2018-02-03T14:41:18.814Z,5.40
2018-02-03T14:43:46.947Z,3.53
2018-02-03T14:46:15.183Z,2.93
2018-02-03T14:48:43.540Z,4.43
2018-02-03T14:51:12.828Z,3.70
2018-02-03T14:53:40.964Z,3.63
2018-02-03T14:56:09.128Z,4.33
2018-02-03T14:58:37.257Z,5.43
2018-02-03T15:01:05.476Z,3.00
2018-02-03T15:03:33.615Z,4.13
2018-02-03T15:06:01.724Z,2.53
2018-02-03T15:08:29.909Z,5.83
2018-02-03T15:10:58.020Z,2.43
2018-02-03T15:13:26.128Z,4.20
2018-02-03T15:15:54.238Z,2.93
2018-02-03T15:18:22.417Z,2.70
2018-02-03T15:20:50.535Z,2.40
2018-02-03T15:23:18.651Z,2.47
2018-02-03T15:25:48.509Z,3.43
2018-02-03T15:28:16.632Z,4.10
2018-02-03T15:30:44.747Z,2.17
2018-02-03T15:33:12.922Z,2.43
2018-02-03T15:35:41.991Z,2.07
2018-02-03T15:38:10.109Z,3.70
2018-02-03T15:40:38.233Z,3.37
2018-02-03T15:43:06.357Z,3.50
2018-02-03T15:45:34.461Z,2.50
2018-02-03T15:48:02.884Z,2.17
2018-02-03T15:50:30.993Z,6.10
2018-02-03T15:52:59.100Z,2.30
2018-02-03T15:55:27.201Z,4.27
2018-02-03T15:57:55.340Z,2.93
2018-02-03T16:00:24.233Z,2.63
2018-02-03T16:02:53.448Z,2.50
2018-02-03T16:05:21.569Z,3.20
2018-02-03T16:07:50.459Z,2.40
2018-02-03T16:10:18.601Z,2.40
2018-02-03T16:12:46.729Z,3.40
2018-02-03T16:15:14.910Z,2.23
2018-02-03T16:17:43.987Z,2.00
2018-02-03T16:20:12.188Z,3.07
2018-02-03T16:22:40.372Z,1.77
2018-02-03T16:25:08.556Z,2.37
2018-02-03T16:27:36.671Z,5.00
2018-02-03T16:30:04.797Z,4.47
2018-02-03T16:32:33.671Z,1.83
2018-02-03T16:35:01.776Z,2.33
2018-02-03T16:37:29.926Z,5.20
2018-02-03T16:40:00.093Z,5.43
2018-02-03T16:42:28.999Z,3.30
2018-02-03T16:44:57.123Z,2.87
2018-02-03T16:47:25.246Z,4.57
2018-02-03T16:49:53.392Z,3.43
2018-02-03T16:52:22.277Z,7.60
2018-02-03T16:54:50.389Z,4.43
2018-02-03T16:57:19.263Z,4.23
2018-02-03T16:59:47.370Z,2.60
2018-02-03T17:02:15.490Z,2.47
2018-02-03T17:04:43.776Z,2.83
2018-02-03T17:07:12.029Z,6.43
2018-02-03T17:09:40.164Z,2.37
2018-02-03T17:12:08.744Z,2.80
2018-02-03T17:14:36.898Z,7.13
2018-02-03T17:17:05.000Z,3.43
2018-02-03T17:19:33.568Z,4.33
2018-02-03T17:22:01.704Z,2.97
2018-02-03T17:24:29.832Z,2.30
2018-02-03T17:26:58.919Z,3.70
2018-02-03T17:29:28.049Z,3.30
2018-02-03T17:31:56.163Z,5.60
2018-02-03T17:34:25.084Z,3.60
2018-02-03T17:36:59.434Z,3.13
2018-02-03T17:39:27.563Z,3.13
2018-02-03T17:41:55.704Z,3.40
2018-02-03T17:44:23.850Z,3.67
2018-02-03T17:46:57.830Z,2.60
2018-02-03T18:15:15.577Z,2.70
2018-02-03T18:17:43.721Z,2.70
2018-02-03T18:20:11.865Z,2.77
2018-02-03T18:22:40.762Z,3.17
2018-02-03T18:25:08.945Z,7.03
2018-02-03T18:27:39.813Z,4.63
2018-02-03T18:30:07.970Z,3.57
2018-02-03T18:32:36.105Z,3.83
2018-02-03T18:35:05.085Z,2.87
2018-02-03T18:37:33.239Z,4.17
2018-02-03T18:40:01.445Z,13.63
2018-02-03T18:42:30.385Z,16.77
2018-02-03T18:44:58.522Z,16.37
2018-02-03T18:47:26.681Z,16.73
2018-02-03T18:49:54.812Z,18.07
2018-02-03T18:52:22.957Z,21.27
2018-02-03T18:54:51.089Z,14.83
2018-02-03T18:57:20.023Z,14.10
2018-02-03T18:59:49.185Z,11.30
2018-02-03T19:02:18.112Z,13.30
2018-02-03T19:04:46.247Z,13.57
2018-02-03T19:07:15.168Z,10.73
2018-02-03T19:09:43.308Z,7.40
2018-02-03T19:12:11.463Z,10.90
2018-02-03T19:14:40.492Z,12.33
2018-02-03T19:17:09.416Z,12.53
2018-02-03T19:19:37.592Z,9.93
2018-02-03T19:22:05.743Z,9.90
2018-02-03T19:24:33.877Z,11.90
2018-02-03T19:27:02.060Z,11.13
2018-02-03T19:29:38.082Z,15.73
2018-02-03T19:32:06.264Z,11.03
2018-02-03T19:34:34.428Z,18.67
2018-02-03T19:37:02.562Z,20.50
2018-02-03T19:39:45.955Z,13.03
2018-02-03T19:42:14.081Z,13.90
2018-02-03T19:44:42.229Z,9.03
2018-02-03T19:47:11.127Z,6.13
2018-02-03T19:49:42.660Z,5.30
2018-02-03T19:52:11.606Z,4.37
2018-02-03T19:54:39.867Z,6.30
2018-02-03T19:57:08.009Z,7.03
2018-02-03T19:59:58.110Z,4.83
2018-02-03T20:02:26.296Z,6.13
2018-02-03T20:04:54.457Z,4.83
2018-02-03T20:07:22.651Z,5.27
2018-02-03T20:10:01.816Z,5.27
2018-02-03T20:12:29.937Z,6.33
2018-02-03T20:14:58.081Z,8.07
2018-02-03T20:17:26.281Z,10.87
2018-02-03T20:20:07.493Z,7.23
2018-02-03T20:22:35.637Z,7.97
2018-02-03T20:25:03.801Z,7.73
2018-02-03T20:27:32.693Z,6.50
2018-02-03T20:30:00.912Z,7.77
2018-02-03T20:32:29.088Z,6.80
2018-02-03T20:34:57.236Z,6.07
2018-02-03T20:37:25.448Z,5.13
2018-02-03T20:39:54.549Z,5.87
2018-02-03T20:42:22.701Z,5.97
2018-02-03T20:44:50.876Z,4.57
2018-02-03T20:47:19.030Z,6.33
2018-02-03T20:49:55.693Z,7.60
2018-02-03T20:52:23.850Z,6.57
2018-02-03T20:54:51.980Z,6.40
2018-02-03T20:57:20.129Z,8.13
2018-02-03T20:59:53.733Z,9.20
2018-02-03T21:02:21.880Z,6.67
2018-02-03T21:04:50.013Z,5.17
2018-02-03T21:07:18.164Z,8.33
2018-02-03T21:09:51.838Z,6.33
2018-02-03T21:12:19.992Z,5.87
2018-02-03T21:14:48.179Z,8.30
2018-02-03T21:17:16.329Z,5.60
2018-02-03T21:19:45.242Z,8.17
2018-02-03T21:22:20.601Z,11.10
2018-02-03T21:24:48.741Z,8.60
2018-02-03T21:27:16.895Z,10.93
2018-02-03T21:29:45.808Z,14.40
2018-02-03T21:32:13.965Z,14.33
2018-02-03T21:34:42.868Z,16.53
2018-02-03T21:37:11.066Z,22.33
2018-02-03T21:39:51.947Z,15.57
2018-02-03T21:42:20.113Z,13.40
2018-02-03T21:44:48.246Z,10.90
2018-02-03T21:47:17.140Z,10.77
2018-02-03T21:49:47.009Z,8.30
2018-02-03T21:52:15.193Z,11.27
2018-02-03T21:54:43.401Z,9.97
2018-02-03T21:57:12.351Z,10.17
2018-02-03T21:59:57.283Z,7.97
2018-02-03T22:02:25.469Z,7.77
2018-02-03T22:04:53.626Z,8.00
2018-02-03T22:07:21.759Z,10.13
2018-02-03T22:10:04.813Z,9.97
2018-02-03T22:12:32.957Z,8.90
2018-02-03T22:15:01.158Z,9.70
2018-02-03T22:17:29.370Z,9.27
2018-02-03T22:20:10.497Z,8.37
2018-02-03T22:22:38.734Z,7.50
2018-02-03T22:25:07.010Z,8.17
2018-02-03T22:27:35.203Z,10.57
2018-02-03T22:30:03.479Z,8.00
2018-02-03T22:32:31.739Z,8.23
2018-02-03T22:34:59.924Z,7.43
2018-02-03T22:37:28.119Z,8.90
2018-02-03T22:40:01.994Z,13.63
2018-02-03T22:42:30.201Z,12.07
2018-02-03T22:44:59.165Z,8.17
2018-02-03T22:47:27.359Z,8.57
2018-02-03T22:50:08.687Z,6.00
2018-02-03T22:52:37.003Z,4.83
2018-02-03T22:55:05.279Z,7.23
2018-02-03T22:57:34.305Z,6.63
2018-02-03T23:00:03.248Z,4.77
2018-02-03T23:02:36.917Z,5.50
2018-02-03T23:05:05.060Z,5.40
2018-02-03T23:07:33.966Z,5.40
2018-02-03T23:10:02.118Z,6.00
2018-02-03T23:12:31.025Z,5.43
2018-02-03T23:14:59.952Z,7.10
2018-02-03T23:17:28.096Z,6.17
2018-02-03T23:20:12.192Z,7.63
2018-02-03T23:22:40.325Z,12.87
2018-02-03T23:25:08.484Z,14.77
2018-02-03T23:27:37.404Z,14.00
2018-02-03T23:30:05.549Z,13.37
2018-02-03T23:32:33.720Z,11.07
2018-02-03T23:35:02.621Z,12.70
2018-02-03T23:37:30.783Z,12.40
2018-02-03T23:40:20.764Z,12.70
2018-02-03T23:42:49.688Z,16.30
2018-02-03T23:45:17.832Z,16.40
2018-02-03T23:48:02.001Z,12.60
2018-02-03T23:50:30.137Z,10.73
2018-02-03T23:52:59.056Z,9.23
2018-02-03T23:55:27.196Z,10.00
2018-02-03T23:57:55.355Z,10.80
